Time;durP1;ratioP1;P1;durP2;ratioP2;P2;SDS_P1;SDS_P2;PMS_P1;PMS_P2;Temp;Humidity;BMP_temperature;BMP_pressure;BME280_temperature;BME280_humidity;BME280_pressure;Samples;Min_cycle;Max_cycle;Signal;HPM_P1;HPM_P2
2024/01/16 00:01:25;;;;;;;;;;;-2.00;99.90;;;;;;20848570;28;19991;-74
2024/01/16 00:11:25;;;;;;;;;;;-2.30;99.90;;;;;;20832543;28;19925;-74
2024/01/16 00:21:26;;;;;;;;;;;-2.50;99.90;;;;;;20845395;28;20409;-74
2024/01/16 00:31:27;;;;;;;;;;;-2.50;99.90;;;;;;20856770;28;19917;-74
2024/01/16 00:41:27;;;;;;;;;;;-2.80;99.90;;;;;;20846577;28;20439;-74
2024/01/16 00:51:28;;;;;;;;;;;-2.90;99.90;;;;;;20831295;28;20382;-73
2024/01/16 01:01:29;;;;;;;;;;;-3.40;99.90;;;;;;20855225;28;20410;-75
2024/01/16 01:11:29;;;;;;;;;;;-3.40;99.90;;;;;;20861766;28;19960;-73
2024/01/16 01:21:30;;;;;;;;;;;-3.50;99.90;;;;;;20861282;28;19917;-75
2024/01/16 01:31:31;;;;;;;;;;;-3.70;99.90;;;;;;20868352;28;19986;-74
2024/01/16 01:41:33;;;;;;;;;;;-3.80;99.90;;;;;;20859642;28;20424;-74
2024/01/16 01:51:34;;;;;;;;;;;-3.80;99.90;;;;;;20868286;28;19975;-74
2024/01/16 02:01:34;;;;;;;;;;;-4.10;99.90;;;;;;20858599;28;20275;-76
2024/01/16 02:11:35;;;;;;;;;;;-4.20;99.90;;;;;;20843883;28;19956;-76
2024/01/16 02:21:48;;;;;;;;;;;-4.40;99.90;;;;;;20848459;28;19965;-75
2024/01/16 02:31:49;;;;;;;;;;;-4.50;99.90;;;;;;20853402;28;20387;-72
2024/01/16 02:41:50;;;;;;;;;;;-4.70;99.90;;;;;;20840449;28;19943;-73
2024/01/16 02:51:50;;;;;;;;;;;-4.70;99.90;;;;;;20829808;28;19914;-75
2024/01/16 03:01:51;;;;;;;;;;;-4.80;99.90;;;;;;20862542;28;20004;-75
2024/01/16 03:11:52;;;;;;;;;;;-4.70;99.90;;;;;;20836533;28;19924;-75
2024/01/16 03:21:53;;;;;;;;;;;-4.70;99.90;;;;;;20834952;28;19921;-75
2024/01/16 03:31:54;;;;;;;;;;;-4.80;99.90;;;;;;20857860;28;19917;-74
2024/01/16 03:41:54;;;;;;;;;;;-5.30;99.90;;;;;;20850634;28;19924;-74
2024/01/16 03:51:55;;;;;;;;;;;-5.30;99.90;;;;;;20841306;28;19956;-75
2024/01/16 04:01:56;;;;;;;;;;;-5.20;99.90;;;;;;20834581;28;20392;-75
2024/01/16 04:11:57;;;;;;;;;;;-5.20;99.90;;;;;;20839706;28;20000;-73
2024/01/16 04:21:57;;;;;;;;;;;-5.10;99.90;;;;;;20841608;28;20384;-75
2024/01/16 04:31:58;;;;;;;;;;;-5.30;99.90;;;;;;20839345;28;19917;-75
2024/01/16 04:41:59;;;;;;;;;;;-5.10;99.90;;;;;;20855338;28;19961;-75
2024/01/16 04:51:59;;;;;;;;;;;-5.00;99.90;;;;;;20842567;28;19913;-76
2024/01/16 05:02:00;;;;;;;;;;;-5.00;99.90;;;;;;20866151;28;19943;-76
2024/01/16 05:12:01;;;;;;;;;;;-5.20;99.90;;;;;;20869552;28;19917;-75
2024/01/16 05:22:02;;;;;;;;;;;-5.20;99.90;;;;;;20852416;28;19959;-76
2024/01/16 05:32:03;;;;;;;;;;;-5.20;99.90;;;;;;20870098;28;19917;-74
2024/01/16 05:42:05;;;;;;;;;;;-5.40;99.90;;;;;;20873003;28;19999;-75
2024/01/16 05:52:05;;;;;;;;;;;-5.70;99.90;;;;;;20915639;28;19912;-74
2024/01/16 06:02:06;;;;;;;;;;;-5.40;99.90;;;;;;20901223;28;19970;-74
2024/01/16 06:12:07;;;;;;;;;;;-5.40;99.90;;;;;;20897479;28;20442;-73
2024/01/16 06:22:08;;;;;;;;;;;-5.50;99.90;;;;;;20902465;28;20299;-72
2024/01/16 06:32:09;;;;;;;;;;;-5.60;99.90;;;;;;20890727;28;19963;-75
2024/01/16 06:42:10;;;;;;;;;;;-5.70;99.90;;;;;;20912802;28;19917;-74
2024/01/16 06:52:10;;;;;;;;;;;-5.60;99.90;;;;;;20899701;28;19959;-72
2024/01/16 07:02:11;;;;;;;;;;;-5.60;99.90;;;;;;20886347;28;19917;-73
2024/01/16 07:12:12;;;;;;;;;;;-5.60;99.90;;;;;;20907735;28;19913;-74
2024/01/16 07:22:14;;;;;;;;;;;-5.60;99.90;;;;;;20909198;28;20012;-75
2024/01/16 07:32:14;;;;;;;;;;;-5.60;99.90;;;;;;20908465;28;20551;-76
2024/01/16 07:42:15;;;;;;;;;;;-5.50;99.90;;;;;;20908193;28;19993;-74
2024/01/16 07:52:15;;;;;;;;;;;-5.20;99.90;;;;;;20906991;28;20074;-76
2024/01/16 08:02:17;;;;;;;;;;;-4.20;99.90;;;;;;20907175;28;19964;-75
2024/01/16 08:12:17;;;;;;;;;;;-3.00;99.90;;;;;;20906995;28;19920;-75
2024/01/16 08:22:18;;;;;;;;;;;-2.40;99.90;;;;;;20911069;28;19923;-76
2024/01/16 08:32:19;;;;;;;;;;;-1.50;99.90;;;;;;20905192;28;19956;-74
2024/01/16 08:42:20;;;;;;;;;;;-0.80;99.90;;;;;;20904792;28;19917;-74
2024/01/16 08:52:20;;;;;;;;;;;-0.60;99.90;;;;;;20903549;28;19920;-73
2024/01/16 09:02:21;;;;;;;;;;;0.20;99.90;;;;;;20897962;28;19917;-74
2024/01/16 09:12:22;;;;;;;;;;;-1.10;99.90;;;;;;20903596;28;19913;-75
2024/01/16 09:22:22;;;;;;;;;;;-0.50;99.90;;;;;;20907944;28;19943;-74
2024/01/16 09:32:23;;;;;;;;;;;1.10;99.90;;;;;;20909432;28;19923;-74
2024/01/16 09:42:24;;;;;;;;;;;1.30;99.90;;;;;;20916693;28;19916;-74
2024/01/16 09:52:25;;;;;;;;;;;2.10;99.90;;;;;;20917267;28;19917;-74
2024/01/16 10:02:26;;;;;;;;;;;0.40;99.90;;;;;;20915638;28;19974;-74
2024/01/16 10:12:27;;;;;;;;;;;0.30;99.90;;;;;;20914788;28;19923;-74
2024/01/16 10:22:28;;;;;;;;;;;0.20;99.90;;;;;;20913873;28;19925;-74
2024/01/16 10:32:29;;;;;;;;;;;0.20;99.90;;;;;;20913765;28;20371;-73
2024/01/16 10:42:30;;;;;;;;;;;1.70;99.90;;;;;;20913216;28;19916;-74
2024/01/16 10:52:33;;;;;;;;;;;3.00;99.90;;;;;;20912112;28;19917;-73
2024/01/16 11:02:44;;;;;;;;;;;4.20;99.90;;;;;;20911102;28;20046;-73
2024/01/16 11:12:45;;;;;;;;;;;4.50;99.90;;;;;;20903281;28;20272;-74
2024/01/16 11:22:46;;;;;;;;;;;4.90;99.90;;;;;;20909597;28;20011;-74
2024/01/16 11:32:47;;;;;;;;;;;4.00;99.90;;;;;;20908472;28;19966;-72
2024/01/16 11:42:52;;;;;;;;;;;5.60;99.90;;;;;;20899465;28;19917;-74
2024/01/16 11:52:53;;;;;;;;;;;5.00;99.90;;;;;;20895766;28;19921;-74
2024/01/16 12:02:55;;;;;;;;;;;4.40;99.90;;;;;;20897694;28;19959;-74
2024/01/16 12:12:58;;;;;;;;;;;4.80;99.90;;;;;;20906459;28;19917;-74
2024/01/16 12:22:58;;;;;;;;;;;6.90;99.90;;;;;;20905610;28;19921;-74
2024/01/16 12:33:06;;;;;;;;;;;7.40;99.90;;;;;;20905665;28;19923;-74
2024/01/16 12:43:09;;;;;;;;;;;6.80;99.90;;;;;;20903524;28;19928;-74
2024/01/16 12:53:10;;;;;;;;;;;7.30;99.90;;;;;;20905819;28;19919;-74
2024/01/16 13:03:19;;;;;;;;;;;7.10;99.90;;;;;;20914131;28;19924;-74
2024/01/16 13:13:21;;;;;;;;;;;7.30;99.90;;;;;;20919460;28;19916;-75
2024/01/16 13:23:24;;;;;;;;;;;6.70;99.90;;;;;;20892534;28;19921;-75
2024/01/16 13:33:28;;;;;;;;;;;7.90;99.90;;;;;;20920106;28;20375;-74
2024/01/16 13:43:28;;;;;;;;;;;7.70;99.90;;;;;;20917805;28;19956;-74
2024/01/16 13:53:29;;;;;;;;;;;7.90;99.90;;;;;;20916976;28;20372;-74
2024/01/16 14:03:30;;;;;;;;;;;8.40;99.90;;;;;;20916024;28;19916;-73
2024/01/16 14:13:31;;;;;;;;;;;8.10;99.90;;;;;;20914889;28;19921;-74
2024/01/16 14:23:32;;;;;;;;;;;8.90;99.90;;;;;;20904179;28;19961;-74
2024/01/16 14:33:32;;;;;;;;;;;6.70;99.90;;;;;;20899520;28;19923;-74
2024/01/16 14:43:33;;;;;;;;;;;6.80;99.90;;;;;;20912364;28;19917;-74
2024/01/16 14:53:34;;;;;;;;;;;5.70;99.90;;;;;;20900015;28;19959;-74
2024/01/16 15:03:34;;;;;;;;;;;5.50;99.90;;;;;;20908083;28;20624;-74
2024/01/16 15:13:35;;;;;;;;;;;5.10;99.90;;;;;;20901310;28;20003;-73
2024/01/16 15:23:36;;;;;;;;;;;5.10;99.90;;;;;;20898159;28;19917;-74
2024/01/16 15:33:37;;;;;;;;;;;4.70;99.90;;;;;;20908610;28;19920;-74
2024/01/16 15:43:37;;;;;;;;;;;4.30;99.90;;;;;;20891075;28;19963;-74
2024/01/16 15:53:38;;;;;;;;;;;1.30;99.90;;;;;;20848311;28;19924;-74
2024/01/16 16:03:38;;;;;;;;;;;0.80;99.90;;;;;;20855517;28;19917;-74
2024/01/16 16:13:40;;;;;;;;;;;0.80;99.90;;;;;;20850174;28;20015;-74
2024/01/16 16:23:40;;;;;;;;;;;0.20;99.90;;;;;;20833284;28;19918;-74
2024/01/16 16:33:41;;;;;;;;;;;0.00;99.90;;;;;;20863361;28;19971;-74
2024/01/16 16:43:42;;;;;;;;;;;0.30;99.90;;;;;;20860863;28;19923;-74
2024/01/16 16:53:44;;;;;;;;;;;0.50;99.90;;;;;;20855815;28;20424;-74
2024/01/16 17:03:46;;;;;;;;;;;-0.40;99.90;;;;;;20873322;28;19916;-74
2024/01/16 17:13:48;;;;;;;;;;;-0.80;99.90;;;;;;20870996;28;20324;-74
2024/01/16 17:23:48;;;;;;;;;;;-0.60;99.90;;;;;;20870252;28;19963;-73
2024/01/16 17:33:49;;;;;;;;;;;-1.00;99.90;;;;;;20860540;28;19917;-74
2024/01/16 17:43:50;;;;;;;;;;;-0.90;99.90;;;;;;20872291;28;19918;-74
2024/01/16 17:53:50;;;;;;;;;;;-0.60;99.90;;;;;;20881571;28;19921;-75
2024/01/16 18:03:52;;;;;;;;;;;-0.50;99.90;;;;;;20866838;28;20004;-76
2024/01/16 18:13:52;;;;;;;;;;;-1.10;99.90;;;;;;20868830;28;20008;-75
2024/01/16 18:23:53;;;;;;;;;;;-1.10;99.90;;;;;;20902706;28;20542;-74
2024/01/16 18:33:54;;;;;;;;;;;-1.20;99.90;;;;;;20855952;28;19917;-74
2024/01/16 18:43:54;;;;;;;;;;;-1.10;99.90;;;;;;20859837;28;19916;-73
2024/01/16 18:53:55;;;;;;;;;;;-0.90;99.90;;;;;;20862390;28;19913;-72
2024/01/16 19:03:56;;;;;;;;;;;-1.20;99.90;;;;;;20856954;28;19917;-74
2024/01/16 19:13:57;;;;;;;;;;;-1.00;99.90;;;;;;20859365;28;20418;-74
2024/01/16 19:23:57;;;;;;;;;;;-1.10;99.90;;;;;;20877663;28;19921;-74
2024/01/16 19:33:58;;;;;;;;;;;-1.00;99.90;;;;;;20878271;28;19917;-74
2024/01/16 19:43:59;;;;;;;;;;;-0.90;99.90;;;;;;20878749;28;20406;-74
2024/01/16 19:54:00;;;;;;;;;;;-1.00;99.90;;;;;;20863963;28;19912;-74
2024/01/16 20:04:01;;;;;;;;;;;-0.80;99.90;;;;;;20862704;28;19916;-73
2024/01/16 20:14:01;;;;;;;;;;;-0.80;99.90;;;;;;20894501;28;20300;-74
2024/01/16 20:24:04;;;;;;;;;;;-0.80;99.90;;;;;;20864230;28;19940;-74
2024/01/16 20:34:05;;;;;;;;;;;-0.80;99.90;;;;;;20859113;28;19924;-74
2024/01/16 20:44:06;;;;;;;;;;;-0.80;99.90;;;;;;20855351;28;19917;-74
2024/01/16 20:54:06;;;;;;;;;;;-0.90;99.90;;;;;;20855858;28;20036;-73
2024/01/16 21:04:07;;;;;;;;;;;-0.90;99.90;;;;;;20856620;28;20316;-73
2024/01/16 21:14:08;;;;;;;;;;;-1.00;99.90;;;;;;20854474;28;19924;-73
2024/01/16 21:24:09;;;;;;;;;;;-0.90;99.90;;;;;;20868150;28;19917;-76
2024/01/16 21:34:10;;;;;;;;;;;-0.80;99.90;;;;;;20867916;28;19924;-76
2024/01/16 21:44:10;;;;;;;;;;;-0.70;99.90;;;;;;20867831;28;20399;-74
2024/01/16 21:54:11;;;;;;;;;;;-0.70;99.90;;;;;;20866783;28;19913;-74
2024/01/16 22:04:12;;;;;;;;;;;-0.80;99.90;;;;;;20867351;28;19917;-74
2024/01/16 22:14:12;;;;;;;;;;;-0.90;99.90;;;;;;20870292;28;20340;-72
2024/01/16 22:24:13;;;;;;;;;;;-1.00;99.90;;;;;;20870651;28;19943;-73
2024/01/16 22:34:14;;;;;;;;;;;-0.90;99.90;;;;;;20866556;28;19916;-73
2024/01/16 22:44:15;;;;;;;;;;;-1.00;99.90;;;;;;20873342;28;19925;-75
2024/01/16 22:54:15;;;;;;;;;;;-1.00;99.90;;;;;;20891169;28;19920;-75
2024/01/16 23:04:17;;;;;;;;;;;-0.90;99.90;;;;;;20912747;28;20372;-73
2024/01/16 23:14:17;;;;;;;;;;;-0.90;99.90;;;;;;20885953;28;19940;-74
2024/01/16 23:24:18;;;;;;;;;;;-0.90;99.90;;;;;;20859587;28;19942;-74
2024/01/16 23:34:19;;;;;;;;;;;-1.00;99.90;;;;;;20859489;28;19917;-75
2024/01/16 23:44:19;;;;;;;;;;;-1.10;99.90;;;;;;20852007;28;19964;-74
2024/01/16 23:54:20;;;;;;;;;;;-1.00;99.90;;;;;;20868747;28;20301;-73
